sensor_id;sensor_type;location;lat;lon;timestamp;P1;durP1;ratioP1;P2;durP2;ratioP2
22665;SDS011;11499;49.486;11.104;2023-04-25T00:00:07;4.07;;;3.57;;
22665;SDS011;11499;49.486;11.104;2023-04-25T00:02:33;3.83;;;3.43;;
22665;SDS011;11499;49.486;11.104;2023-04-25T00:05:00;3.80;;;3.37;;
22665;SDS011;11499;49.486;11.104;2023-04-25T00:07:27;3.30;;;3.00;;
22665;SDS011;11499;49.486;11.104;2023-04-25T00:12:26;4.13;;;3.47;;
22665;SDS011;11499;49.486;11.104;2023-04-25T00:14:53;3.67;;;3.37;;
22665;SDS011;11499;49.486;11.104;2023-04-25T00:17:21;3.50;;;3.20;;
22665;SDS011;11499;49.486;11.104;2023-04-25T00:19:49;3.13;;;2.83;;
22665;SDS011;11499;49.486;11.104;2023-04-25T00:22:15;3.53;;;3.10;;
22665;SDS011;11499;49.486;11.104;2023-04-25T00:24:41;3.50;;;3.20;;
22665;SDS011;11499;49.486;11.104;2023-04-25T00:27:06;3.97;;;3.53;;
22665;SDS011;11499;49.486;11.104;2023-04-25T00:29:32;3.93;;;3.47;;
22665;SDS011;11499;49.486;11.104;2023-04-25T00:31:58;3.33;;;3.03;;
22665;SDS011;11499;49.486;11.104;2023-04-25T00:34:23;3.57;;;2.90;;
22665;SDS011;11499;49.486;11.104;2023-04-25T00:39:25;3.27;;;2.97;;
22665;SDS011;11499;49.486;11.104;2023-04-25T00:41:51;3.43;;;2.87;;
22665;SDS011;11499;49.486;11.104;2023-04-25T00:44:19;3.53;;;2.60;;
22665;SDS011;11499;49.486;11.104;2023-04-25T00:46:46;3.37;;;3.07;;
22665;SDS011;11499;49.486;11.104;2023-04-25T00:49:12;3.03;;;2.73;;
22665;SDS011;11499;49.486;11.104;2023-04-25T00:51:40;3.30;;;3.00;;
22665;SDS011;11499;49.486;11.104;2023-04-25T00:54:06;3.13;;;2.83;;
22665;SDS011;11499;49.486;11.104;2023-04-25T00:56:32;2.80;;;2.53;;
22665;SDS011;11499;49.486;11.104;2023-04-25T00:58:58;3.30;;;3.00;;
22665;SDS011;11499;49.486;11.104;2023-04-25T01:01:23;3.20;;;2.87;;
22665;SDS011;11499;49.486;11.104;2023-04-25T01:03:49;3.30;;;3.00;;
22665;SDS011;11499;49.486;11.104;2023-04-25T01:08:54;3.37;;;3.07;;
22665;SDS011;11499;49.486;11.104;2023-04-25T01:11:20;3.50;;;3.20;;
22665;SDS011;11499;49.486;11.104;2023-04-25T01:13:45;3.10;;;2.80;;
22665;SDS011;11499;49.486;11.104;2023-04-25T01:16:11;3.27;;;2.97;;
22665;SDS011;11499;49.486;11.104;2023-04-25T01:18:38;3.97;;;2.80;;
22665;SDS011;11499;49.486;11.104;2023-04-25T01:21:11;3.23;;;2.90;;
22665;SDS011;11499;49.486;11.104;2023-04-25T01:23:41;3.40;;;2.83;;
22665;SDS011;11499;49.486;11.104;2023-04-25T01:26:08;2.70;;;2.50;;
22665;SDS011;11499;49.486;11.104;2023-04-25T01:28:35;2.90;;;2.53;;
22665;SDS011;11499;49.486;11.104;2023-04-25T01:31:02;2.80;;;2.50;;
22665;SDS011;11499;49.486;11.104;2023-04-25T01:35:39;3.23;;;2.93;;
22665;SDS011;11499;49.486;11.104;2023-04-25T01:38:05;2.97;;;2.50;;
22665;SDS011;11499;49.486;11.104;2023-04-25T01:40:30;2.83;;;2.57;;
22665;SDS011;11499;49.486;11.104;2023-04-25T01:42:58;3.83;;;3.00;;
22665;SDS011;11499;49.486;11.104;2023-04-25T01:45:23;3.17;;;2.50;;
22665;SDS011;11499;49.486;11.104;2023-04-25T01:47:49;4.07;;;2.73;;
22665;SDS011;11499;49.486;11.104;2023-04-25T01:50:16;3.17;;;2.87;;
22665;SDS011;11499;49.486;11.104;2023-04-25T01:52:42;2.70;;;2.50;;
22665;SDS011;11499;49.486;11.104;2023-04-25T01:55:08;3.67;;;2.90;;
22665;SDS011;11499;49.486;11.104;2023-04-25T01:57:34;3.37;;;2.90;;
22665;SDS011;11499;49.486;11.104;2023-04-25T02:00:02;3.10;;;2.57;;
22665;SDS011;11499;49.486;11.104;2023-04-25T02:05:10;3.80;;;3.07;;
22665;SDS011;11499;49.486;11.104;2023-04-25T02:07:36;3.30;;;3.00;;
22665;SDS011;11499;49.486;11.104;2023-04-25T02:10:02;3.17;;;2.87;;
22665;SDS011;11499;49.486;11.104;2023-04-25T02:12:28;3.67;;;2.90;;
22665;SDS011;11499;49.486;11.104;2023-04-25T02:14:54;3.50;;;2.50;;
22665;SDS011;11499;49.486;11.104;2023-04-25T02:17:19;2.87;;;2.67;;
22665;SDS011;11499;49.486;11.104;2023-04-25T02:19:46;3.37;;;3.07;;
22665;SDS011;11499;49.486;11.104;2023-04-25T02:22:12;3.00;;;2.70;;
22665;SDS011;11499;49.486;11.104;2023-04-25T02:24:37;2.80;;;2.60;;
22665;SDS011;11499;49.486;11.104;2023-04-25T02:27:03;3.27;;;2.80;;
22665;SDS011;11499;49.486;11.104;2023-04-25T02:32:03;3.07;;;2.67;;
22665;SDS011;11499;49.486;11.104;2023-04-25T02:34:29;2.90;;;2.70;;
22665;SDS011;11499;49.486;11.104;2023-04-25T02:36:55;4.63;;;3.10;;
22665;SDS011;11499;49.486;11.104;2023-04-25T02:39:20;3.13;;;2.83;;
22665;SDS011;11499;49.486;11.104;2023-04-25T02:41:47;5.03;;;3.13;;
22665;SDS011;11499;49.486;11.104;2023-04-25T02:44:12;3.20;;;2.90;;
22665;SDS011;11499;49.486;11.104;2023-04-25T02:46:38;3.30;;;2.93;;
22665;SDS011;11499;49.486;11.104;2023-04-25T02:49:03;3.47;;;3.17;;
22665;SDS011;11499;49.486;11.104;2023-04-25T02:51:30;4.93;;;3.27;;
22665;SDS011;11499;49.486;11.104;2023-04-25T02:53:55;3.90;;;3.00;;
22665;SDS011;11499;49.486;11.104;2023-04-25T02:59:09;5.27;;;4.50;;
22665;SDS011;11499;49.486;11.104;2023-04-25T03:01:35;4.33;;;3.93;;
22665;SDS011;11499;49.486;11.104;2023-04-25T03:04:00;4.37;;;3.40;;
22665;SDS011;11499;49.486;11.104;2023-04-25T03:06:26;3.80;;;3.50;;
22665;SDS011;11499;49.486;11.104;2023-04-25T03:08:51;4.20;;;3.60;;
22665;SDS011;11499;49.486;11.104;2023-04-25T03:11:17;4.77;;;4.10;;
22665;SDS011;11499;49.486;11.104;2023-04-25T03:13:45;4.20;;;3.90;;
22665;SDS011;11499;49.486;11.104;2023-04-25T03:16:10;5.20;;;4.70;;
22665;SDS011;11499;49.486;11.104;2023-04-25T03:18:36;5.40;;;4.87;;
22665;SDS011;11499;49.486;11.104;2023-04-25T03:21:02;5.53;;;4.57;;
22665;SDS011;11499;49.486;11.104;2023-04-25T03:26:08;5.30;;;4.80;;
22665;SDS011;11499;49.486;11.104;2023-04-25T03:28:33;5.97;;;4.83;;
22665;SDS011;11499;49.486;11.104;2023-04-25T03:30:59;4.97;;;4.57;;
22665;SDS011;11499;49.486;11.104;2023-04-25T03:33:24;5.13;;;4.63;;
22665;SDS011;11499;49.486;11.104;2023-04-25T03:35:50;6.10;;;4.37;;
22665;SDS011;11499;49.486;11.104;2023-04-25T03:38:16;5.50;;;5.00;;
22665;SDS011;11499;49.486;11.104;2023-04-25T03:40:42;5.50;;;5.00;;
22665;SDS011;11499;49.486;11.104;2023-04-25T03:43:07;6.00;;;5.00;;
22665;SDS011;11499;49.486;11.104;2023-04-25T03:45:33;5.57;;;5.03;;
22665;SDS011;11499;49.486;11.104;2023-04-25T03:47:58;5.23;;;4.50;;
22665;SDS011;11499;49.486;11.104;2023-04-25T03:52:15;7.70;;;5.50;;
22665;SDS011;11499;49.486;11.104;2023-04-25T03:54:40;6.53;;;5.10;;
22665;SDS011;11499;49.486;11.104;2023-04-25T03:57:06;5.70;;;5.10;;
22665;SDS011;11499;49.486;11.104;2023-04-25T03:59:31;6.57;;;5.60;;
22665;SDS011;11499;49.486;11.104;2023-04-25T04:01:57;5.37;;;4.87;;
22665;SDS011;11499;49.486;11.104;2023-04-25T04:04:22;6.80;;;4.97;;
22665;SDS011;11499;49.486;11.104;2023-04-25T04:06:48;5.70;;;4.83;;
22665;SDS011;11499;49.486;11.104;2023-04-25T04:09:13;6.47;;;5.17;;
22665;SDS011;11499;49.486;11.104;2023-04-25T04:11:39;5.97;;;5.17;;
22665;SDS011;11499;49.486;11.104;2023-04-25T04:14:05;5.83;;;5.03;;
22665;SDS011;11499;49.486;11.104;2023-04-25T04:19:14;5.77;;;4.87;;
22665;SDS011;11499;49.486;11.104;2023-04-25T04:21:40;4.80;;;4.40;;
22665;SDS011;11499;49.486;11.104;2023-04-25T04:24:05;6.00;;;5.40;;
22665;SDS011;11499;49.486;11.104;2023-04-25T04:26:31;5.43;;;4.93;;
22665;SDS011;11499;49.486;11.104;2023-04-25T04:28:57;5.63;;;5.13;;
22665;SDS011;11499;49.486;11.104;2023-04-25T04:31:24;5.37;;;4.87;;
22665;SDS011;11499;49.486;11.104;2023-04-25T04:33:49;5.47;;;4.97;;
22665;SDS011;11499;49.486;11.104;2023-04-25T04:36:15;5.97;;;5.40;;
22665;SDS011;11499;49.486;11.104;2023-04-25T04:38:44;6.03;;;5.43;;
22665;SDS011;11499;49.486;11.104;2023-04-25T04:41:10;6.40;;;5.20;;
22665;SDS011;11499;49.486;11.104;2023-04-25T04:46:15;5.87;;;5.27;;
22665;SDS011;11499;49.486;11.104;2023-04-25T04:48:41;5.53;;;5.03;;
22665;SDS011;11499;49.486;11.104;2023-04-25T04:51:07;6.30;;;5.50;;
22665;SDS011;11499;49.486;11.104;2023-04-25T04:53:33;6.50;;;5.90;;
22665;SDS011;11499;49.486;11.104;2023-04-25T04:55:58;5.67;;;5.17;;
22665;SDS011;11499;49.486;11.104;2023-04-25T04:58:24;5.83;;;5.33;;
22665;SDS011;11499;49.486;11.104;2023-04-25T05:00:49;6.20;;;5.60;;
22665;SDS011;11499;49.486;11.104;2023-04-25T05:03:15;5.77;;;5.27;;
22665;SDS011;11499;49.486;11.104;2023-04-25T05:05:41;5.20;;;4.70;;
22665;SDS011;11499;49.486;11.104;2023-04-25T05:08:06;6.20;;;5.60;;
22665;SDS011;11499;49.486;11.104;2023-04-25T05:13:16;7.10;;;5.70;;
22665;SDS011;11499;49.486;11.104;2023-04-25T05:15:42;6.90;;;5.93;;
22665;SDS011;11499;49.486;11.104;2023-04-25T05:18:07;6.00;;;5.40;;
22665;SDS011;11499;49.486;11.104;2023-04-25T05:20:33;6.30;;;5.40;;
22665;SDS011;11499;49.486;11.104;2023-04-25T05:22:58;6.40;;;5.80;;
22665;SDS011;11499;49.486;11.104;2023-04-25T05:25:24;6.30;;;5.70;;
22665;SDS011;11499;49.486;11.104;2023-04-25T05:27:50;6.27;;;5.70;;
22665;SDS011;11499;49.486;11.104;2023-04-25T05:30:17;5.63;;;5.13;;
22665;SDS011;11499;49.486;11.104;2023-04-25T05:32:42;5.83;;;5.33;;
22665;SDS011;11499;49.486;11.104;2023-04-25T05:35:08;5.83;;;5.33;;
22665;SDS011;11499;49.486;11.104;2023-04-25T05:39:24;5.43;;;4.93;;
22665;SDS011;11499;49.486;11.104;2023-04-25T05:41:50;5.30;;;4.80;;
22665;SDS011;11499;49.486;11.104;2023-04-25T05:44:15;5.10;;;4.60;;
22665;SDS011;11499;49.486;11.104;2023-04-25T05:46:41;5.33;;;4.83;;
22665;SDS011;11499;49.486;11.104;2023-04-25T05:49:07;5.20;;;4.70;;
22665;SDS011;11499;49.486;11.104;2023-04-25T05:51:32;5.73;;;5.13;;
22665;SDS011;11499;49.486;11.104;2023-04-25T05:53:58;5.87;;;5.37;;
22665;SDS011;11499;49.486;11.104;2023-04-25T05:56:23;7.37;;;5.30;;
22665;SDS011;11499;49.486;11.104;2023-04-25T05:58:49;5.30;;;4.80;;
22665;SDS011;11499;49.486;11.104;2023-04-25T06:01:15;6.17;;;5.57;;
22665;SDS011;11499;49.486;11.104;2023-04-25T06:06:43;6.43;;;5.30;;
22665;SDS011;11499;49.486;11.104;2023-04-25T06:09:08;5.30;;;4.80;;
22665;SDS011;11499;49.486;11.104;2023-04-25T06:11:34;5.23;;;4.73;;
22665;SDS011;11499;49.486;11.104;2023-04-25T06:14:00;5.63;;;5.10;;
22665;SDS011;11499;49.486;11.104;2023-04-25T06:16:25;5.17;;;4.67;;
22665;SDS011;11499;49.486;11.104;2023-04-25T06:18:51;5.90;;;4.90;;
22665;SDS011;11499;49.486;11.104;2023-04-25T06:21:17;5.73;;;5.23;;
22665;SDS011;11499;49.486;11.104;2023-04-25T06:23:42;5.93;;;5.33;;
22665;SDS011;11499;49.486;11.104;2023-04-25T06:26:08;6.20;;;5.20;;
22665;SDS011;11499;49.486;11.104;2023-04-25T06:28:33;6.00;;;5.40;;
22665;SDS011;11499;49.486;11.104;2023-04-25T06:33:25;6.43;;;5.50;;
22665;SDS011;11499;49.486;11.104;2023-04-25T06:35:51;6.20;;;5.13;;
22665;SDS011;11499;49.486;11.104;2023-04-25T06:38:17;6.20;;;5.60;;
22665;SDS011;11499;49.486;11.104;2023-04-25T06:40:43;6.40;;;5.80;;
22665;SDS011;11499;49.486;11.104;2023-04-25T06:43:08;6.47;;;5.83;;
22665;SDS011;11499;49.486;11.104;2023-04-25T06:45:34;5.90;;;5.33;;
22665;SDS011;11499;49.486;11.104;2023-04-25T06:47:59;6.07;;;5.47;;
22665;SDS011;11499;49.486;11.104;2023-04-25T06:50:25;7.87;;;5.67;;
22665;SDS011;11499;49.486;11.104;2023-04-25T06:56:12;5.57;;;5.07;;
22665;SDS011;11499;49.486;11.104;2023-04-25T06:58:38;6.40;;;5.20;;
22665;SDS011;11499;49.486;11.104;2023-04-25T07:02:33;5.97;;;5.30;;
22665;SDS011;11499;49.486;11.104;2023-04-25T07:04:58;5.40;;;4.73;;
22665;SDS011;11499;49.486;11.104;2023-04-25T07:07:24;5.93;;;5.33;;
22665;SDS011;11499;49.486;11.104;2023-04-25T07:09:50;6.40;;;5.43;;
22665;SDS011;11499;49.486;11.104;2023-04-25T07:12:16;5.27;;;4.77;;
22665;SDS011;11499;49.486;11.104;2023-04-25T07:14:42;4.50;;;4.10;;
22665;SDS011;11499;49.486;11.104;2023-04-25T07:17:07;4.50;;;4.10;;
22665;SDS011;11499;49.486;11.104;2023-04-25T07:19:33;4.03;;;3.70;;
22665;SDS011;11499;49.486;11.104;2023-04-25T07:21:58;3.67;;;3.37;;
22665;SDS011;11499;49.486;11.104;2023-04-25T07:24:24;4.67;;;3.03;;
22665;SDS011;11499;49.486;11.104;2023-04-25T07:29:09;2.73;;;2.37;;
22665;SDS011;11499;49.486;11.104;2023-04-25T07:31:35;3.00;;;2.00;;
22665;SDS011;11499;49.486;11.104;2023-04-25T07:34:00;2.77;;;2.50;;
22665;SDS011;11499;49.486;11.104;2023-04-25T07:36:26;2.73;;;2.53;;
22665;SDS011;11499;49.486;11.104;2023-04-25T07:38:52;3.17;;;2.87;;
22665;SDS011;11499;49.486;11.104;2023-04-25T07:41:17;4.27;;;2.93;;
22665;SDS011;11499;49.486;11.104;2023-04-25T07:43:43;4.63;;;3.37;;
22665;SDS011;11499;49.486;11.104;2023-04-25T07:46:08;4.73;;;3.53;;
22665;SDS011;11499;49.486;11.104;2023-04-25T07:48:34;4.10;;;3.70;;
22665;SDS011;11499;49.486;11.104;2023-04-25T07:50:59;5.67;;;3.30;;
22665;SDS011;11499;49.486;11.104;2023-04-25T07:56:17;4.17;;;3.67;;
22665;SDS011;11499;49.486;11.104;2023-04-25T07:58:43;4.97;;;3.00;;
22665;SDS011;11499;49.486;11.104;2023-04-25T08:01:08;3.40;;;3.10;;
22665;SDS011;11499;49.486;11.104;2023-04-25T08:03:34;3.97;;;3.57;;
22665;SDS011;11499;49.486;11.104;2023-04-25T08:05:59;4.23;;;3.80;;
22665;SDS011;11499;49.486;11.104;2023-04-25T08:08:25;4.87;;;3.83;;
22665;SDS011;11499;49.486;11.104;2023-04-25T08:10:50;5.70;;;4.57;;
22665;SDS011;11499;49.486;11.104;2023-04-25T08:13:16;6.63;;;4.43;;
22665;SDS011;11499;49.486;11.104;2023-04-25T08:15:41;4.47;;;3.30;;
22665;SDS011;11499;49.486;11.104;2023-04-25T08:18:07;3.00;;;2.77;;
22665;SDS011;11499;49.486;11.104;2023-04-25T08:20:33;3.83;;;3.53;;
22665;SDS011;11499;49.486;11.104;2023-04-25T08:24:51;4.37;;;3.10;;
22665;SDS011;11499;49.486;11.104;2023-04-25T08:27:17;5.70;;;3.40;;
22665;SDS011;11499;49.486;11.104;2023-04-25T08:29:43;4.27;;;2.93;;
22665;SDS011;11499;49.486;11.104;2023-04-25T08:32:08;3.27;;;2.87;;
22665;SDS011;11499;49.486;11.104;2023-04-25T08:34:34;3.70;;;3.00;;
22665;SDS011;11499;49.486;11.104;2023-04-25T08:36:59;4.10;;;3.10;;
22665;SDS011;11499;49.486;11.104;2023-04-25T08:39:25;4.53;;;3.40;;
22665;SDS011;11499;49.486;11.104;2023-04-25T08:41:51;3.00;;;2.70;;
22665;SDS011;11499;49.486;11.104;2023-04-25T08:44:17;3.83;;;3.10;;
22665;SDS011;11499;49.486;11.104;2023-04-25T08:49:54;3.83;;;3.20;;
22665;SDS011;11499;49.486;11.104;2023-04-25T08:52:24;5.97;;;3.57;;
22665;SDS011;11499;49.486;11.104;2023-04-25T08:54:55;5.13;;;4.00;;
22665;SDS011;11499;49.486;11.104;2023-04-25T08:57:21;4.40;;;4.00;;
22665;SDS011;11499;49.486;11.104;2023-04-25T08:59:48;4.50;;;3.67;;
22665;SDS011;11499;49.486;11.104;2023-04-25T09:02:14;5.30;;;4.10;;
22665;SDS011;11499;49.486;11.104;2023-04-25T09:04:42;6.50;;;3.90;;
22665;SDS011;11499;49.486;11.104;2023-04-25T09:07:09;4.10;;;3.70;;
22665;SDS011;11499;49.486;11.104;2023-04-25T09:09:34;4.47;;;4.03;;
22665;SDS011;11499;49.486;11.104;2023-04-25T09:12:01;4.60;;;3.43;;
22665;SDS011;11499;49.486;11.104;2023-04-25T09:16:26;5.60;;;4.40;;
22665;SDS011;11499;49.486;11.104;2023-04-25T09:18:52;5.77;;;4.03;;
22665;SDS011;11499;49.486;11.104;2023-04-25T09:21:21;5.07;;;4.33;;
22665;SDS011;11499;49.486;11.104;2023-04-25T09:23:47;5.20;;;4.50;;
22665;SDS011;11499;49.486;11.104;2023-04-25T09:26:15;6.37;;;4.17;;
22665;SDS011;11499;49.486;11.104;2023-04-25T09:28:42;4.77;;;4.37;;
22665;SDS011;11499;49.486;11.104;2023-04-25T09:31:09;6.13;;;4.10;;
22665;SDS011;11499;49.486;11.104;2023-04-25T09:33:36;4.37;;;3.97;;
22665;SDS011;11499;49.486;11.104;2023-04-25T09:36:08;3.87;;;3.57;;
22665;SDS011;11499;49.486;11.104;2023-04-25T09:38:40;5.80;;;3.63;;
22665;SDS011;11499;49.486;11.104;2023-04-25T09:43:48;4.03;;;3.63;;
22665;SDS011;11499;49.486;11.104;2023-04-25T09:46:15;4.97;;;4.17;;
22665;SDS011;11499;49.486;11.104;2023-04-25T09:48:46;3.90;;;3.50;;
22665;SDS011;11499;49.486;11.104;2023-04-25T09:51:14;3.60;;;3.30;;
22665;SDS011;11499;49.486;11.104;2023-04-25T09:53:40;4.30;;;3.90;;
22665;SDS011;11499;49.486;11.104;2023-04-25T09:56:16;3.80;;;3.40;;
22665;SDS011;11499;49.486;11.104;2023-04-25T09:58:43;4.00;;;3.60;;
22665;SDS011;11499;49.486;11.104;2023-04-25T10:01:10;5.73;;;3.73;;
22665;SDS011;11499;49.486;11.104;2023-04-25T10:03:36;4.70;;;2.90;;
22665;SDS011;11499;49.486;11.104;2023-04-25T10:06:13;2.77;;;2.33;;
22665;SDS011;11499;49.486;11.104;2023-04-25T10:10:15;3.37;;;2.83;;
22665;SDS011;11499;49.486;11.104;2023-04-25T10:12:41;2.77;;;2.47;;
22665;SDS011;11499;49.486;11.104;2023-04-25T10:15:09;3.40;;;2.33;;
22665;SDS011;11499;49.486;11.104;2023-04-25T10:17:35;3.37;;;2.10;;
22665;SDS011;11499;49.486;11.104;2023-04-25T10:20:01;3.37;;;2.40;;
22665;SDS011;11499;49.486;11.104;2023-04-25T10:22:34;2.57;;;2.17;;
22665;SDS011;11499;49.486;11.104;2023-04-25T10:25:02;2.13;;;1.80;;
22665;SDS011;11499;49.486;11.104;2023-04-25T10:27:29;3.33;;;1.80;;
22665;SDS011;11499;49.486;11.104;2023-04-25T10:32:35;2.93;;;1.70;;
22665;SDS011;11499;49.486;11.104;2023-04-25T10:36:39;2.63;;;1.60;;
22665;SDS011;11499;49.486;11.104;2023-04-25T10:39:05;2.40;;;1.63;;
22665;SDS011;11499;49.486;11.104;2023-04-25T10:41:32;2.07;;;1.80;;
22665;SDS011;11499;49.486;11.104;2023-04-25T10:44:29;3.63;;;1.70;;
22665;SDS011;11499;49.486;11.104;2023-04-25T10:46:55;2.37;;;1.60;;
22665;SDS011;11499;49.486;11.104;2023-04-25T10:49:32;2.33;;;1.70;;
22665;SDS011;11499;49.486;11.104;2023-04-25T10:52:12;2.60;;;1.70;;
22665;SDS011;11499;49.486;11.104;2023-04-25T10:54:48;2.13;;;1.73;;
22665;SDS011;11499;49.486;11.104;2023-04-25T10:57:32;3.73;;;1.63;;
22665;SDS011;11499;49.486;11.104;2023-04-25T11:02:48;3.23;;;1.77;;
22665;SDS011;11499;49.486;11.104;2023-04-25T11:05:20;2.03;;;1.60;;
22665;SDS011;11499;49.486;11.104;2023-04-25T11:07:55;4.03;;;1.70;;
22665;SDS011;11499;49.486;11.104;2023-04-25T11:10:27;3.07;;;1.80;;
22665;SDS011;11499;49.486;11.104;2023-04-25T11:12:54;2.90;;;1.83;;
22665;SDS011;11499;49.486;11.104;2023-04-25T11:15:20;3.87;;;1.90;;
22665;SDS011;11499;49.486;11.104;2023-04-25T11:17:46;3.43;;;1.70;;
22665;SDS011;11499;49.486;11.104;2023-04-25T11:20:12;1.80;;;1.57;;
22665;SDS011;11499;49.486;11.104;2023-04-25T11:22:39;2.53;;;1.80;;
22665;SDS011;11499;49.486;11.104;2023-04-25T11:25:08;2.67;;;1.37;;
22665;SDS011;11499;49.486;11.104;2023-04-25T11:30:11;2.37;;;1.63;;
22665;SDS011;11499;49.486;11.104;2023-04-25T11:32:38;1.73;;;1.50;;
22665;SDS011;11499;49.486;11.104;2023-04-25T11:35:05;3.70;;;1.70;;
22665;SDS011;11499;49.486;11.104;2023-04-25T11:37:32;3.27;;;1.57;;
22665;SDS011;11499;49.486;11.104;2023-04-25T11:39:59;3.77;;;1.77;;
22665;SDS011;11499;49.486;11.104;2023-04-25T11:42:25;2.60;;;1.90;;
22665;SDS011;11499;49.486;11.104;2023-04-25T11:44:50;2.20;;;1.70;;
22665;SDS011;11499;49.486;11.104;2023-04-25T11:47:16;2.93;;;1.60;;
22665;SDS011;11499;49.486;11.104;2023-04-25T11:49:42;4.00;;;1.67;;
22665;SDS011;11499;49.486;11.104;2023-04-25T11:52:08;2.87;;;1.80;;
22665;SDS011;11499;49.486;11.104;2023-04-25T11:57:25;2.77;;;1.30;;
22665;SDS011;11499;49.486;11.104;2023-04-25T11:59:50;2.83;;;1.53;;
22665;SDS011;11499;49.486;11.104;2023-04-25T12:02:25;3.33;;;1.43;;
22665;SDS011;11499;49.486;11.104;2023-04-25T12:04:51;1.60;;;1.27;;
22665;SDS011;11499;49.486;11.104;2023-04-25T12:07:17;1.87;;;1.40;;
22665;SDS011;11499;49.486;11.104;2023-04-25T12:09:51;2.10;;;1.23;;
22665;SDS011;11499;49.486;11.104;2023-04-25T12:12:17;1.17;;;1.07;;
22665;SDS011;11499;49.486;11.104;2023-04-25T12:14:45;1.30;;;1.17;;
22665;SDS011;11499;49.486;11.104;2023-04-25T12:17:13;1.60;;;1.20;;
22665;SDS011;11499;49.486;11.104;2023-04-25T12:19:38;2.33;;;1.30;;
22665;SDS011;11499;49.486;11.104;2023-04-25T12:23:53;1.30;;;1.03;;
22665;SDS011;11499;49.486;11.104;2023-04-25T12:26:19;1.77;;;1.27;;
22665;SDS011;11499;49.486;11.104;2023-04-25T12:28:45;1.63;;;1.20;;
22665;SDS011;11499;49.486;11.104;2023-04-25T12:31:12;2.03;;;1.20;;
22665;SDS011;11499;49.486;11.104;2023-04-25T12:33:39;1.17;;;1.00;;
22665;SDS011;11499;49.486;11.104;2023-04-25T12:36:07;1.33;;;1.20;;
22665;SDS011;11499;49.486;11.104;2023-04-25T12:38:40;2.27;;;1.23;;
22665;SDS011;11499;49.486;11.104;2023-04-25T12:41:06;1.80;;;1.23;;
22665;SDS011;11499;49.486;11.104;2023-04-25T12:43:33;2.73;;;1.50;;
22665;SDS011;11499;49.486;11.104;2023-04-25T12:45:58;1.47;;;1.33;;
22665;SDS011;11499;49.486;11.104;2023-04-25T12:51:06;3.00;;;1.40;;
22665;SDS011;11499;49.486;11.104;2023-04-25T12:53:32;1.73;;;1.37;;
22665;SDS011;11499;49.486;11.104;2023-04-25T12:55:57;1.43;;;1.30;;
22665;SDS011;11499;49.486;11.104;2023-04-25T12:58:23;1.30;;;1.20;;
22665;SDS011;11499;49.486;11.104;2023-04-25T13:00:49;2.37;;;1.50;;
22665;SDS011;11499;49.486;11.104;2023-04-25T13:03:15;1.80;;;1.40;;
22665;SDS011;11499;49.486;11.104;2023-04-25T13:05:41;1.57;;;1.20;;
22665;SDS011;11499;49.486;11.104;2023-04-25T13:08:07;2.43;;;1.43;;
22665;SDS011;11499;49.486;11.104;2023-04-25T13:10:33;1.67;;;1.57;;
22665;SDS011;11499;49.486;11.104;2023-04-25T13:12:58;1.57;;;1.47;;
22665;SDS011;11499;49.486;11.104;2023-04-25T13:18:06;1.63;;;1.50;;
22665;SDS011;11499;49.486;11.104;2023-04-25T13:20:31;2.30;;;1.80;;
22665;SDS011;11499;49.486;11.104;2023-04-25T13:22:57;3.93;;;1.60;;
22665;SDS011;11499;49.486;11.104;2023-04-25T13:25:22;1.63;;;1.43;;
22665;SDS011;11499;49.486;11.104;2023-04-25T13:27:48;1.77;;;1.43;;
22665;SDS011;11499;49.486;11.104;2023-04-25T13:30:14;1.70;;;1.60;;
22665;SDS011;11499;49.486;11.104;2023-04-25T13:32:39;2.27;;;1.50;;
22665;SDS011;11499;49.486;11.104;2023-04-25T13:35:08;1.70;;;1.33;;
22665;SDS011;11499;49.486;11.104;2023-04-25T13:37:35;1.60;;;1.50;;
22665;SDS011;11499;49.486;11.104;2023-04-25T13:40:02;1.67;;;1.57;;
22665;SDS011;11499;49.486;11.104;2023-04-25T13:45:18;1.83;;;1.60;;
22665;SDS011;11499;49.486;11.104;2023-04-25T13:47:44;2.00;;;1.83;;
22665;SDS011;11499;49.486;11.104;2023-04-25T13:50:09;1.80;;;1.60;;
22665;SDS011;11499;49.486;11.104;2023-04-25T13:52:35;1.70;;;1.60;;
22665;SDS011;11499;49.486;11.104;2023-04-25T13:55:01;1.63;;;1.50;;
22665;SDS011;11499;49.486;11.104;2023-04-25T13:57:28;2.17;;;1.57;;
22665;SDS011;11499;49.486;11.104;2023-04-25T13:59:55;1.77;;;1.53;;
22665;SDS011;11499;49.486;11.104;2023-04-25T14:02:21;1.60;;;1.50;;
22665;SDS011;11499;49.486;11.104;2023-04-25T14:04:46;3.30;;;2.00;;
22665;SDS011;11499;49.486;11.104;2023-04-25T14:07:12;1.80;;;1.70;;
22665;SDS011;11499;49.486;11.104;2023-04-25T14:12:21;2.50;;;1.90;;
22665;SDS011;11499;49.486;11.104;2023-04-25T14:14:47;1.87;;;1.70;;
22665;SDS011;11499;49.486;11.104;2023-04-25T14:17:13;2.30;;;1.83;;
22665;SDS011;11499;49.486;11.104;2023-04-25T14:19:38;3.10;;;1.80;;
22665;SDS011;11499;49.486;11.104;2023-04-25T14:22:08;2.37;;;1.93;;
22665;SDS011;11499;49.486;11.104;2023-04-25T14:24:33;3.10;;;2.23;;
22665;SDS011;11499;49.486;11.104;2023-04-25T14:26:59;3.10;;;2.03;;
22665;SDS011;11499;49.486;11.104;2023-04-25T14:29:25;2.27;;;1.77;;
22665;SDS011;11499;49.486;11.104;2023-04-25T14:31:51;2.10;;;1.90;;
22665;SDS011;11499;49.486;11.104;2023-04-25T14:34:16;2.03;;;1.73;;
22665;SDS011;11499;49.486;11.104;2023-04-25T14:39:04;3.00;;;2.13;;
22665;SDS011;11499;49.486;11.104;2023-04-25T14:41:33;1.80;;;1.60;;
22665;SDS011;11499;49.486;11.104;2023-04-25T14:43:59;2.53;;;2.00;;
22665;SDS011;11499;49.486;11.104;2023-04-25T14:46:24;2.20;;;1.90;;
22665;SDS011;11499;49.486;11.104;2023-04-25T14:48:50;2.10;;;1.90;;
22665;SDS011;11499;49.486;11.104;2023-04-25T14:51:16;4.77;;;2.60;;
22665;SDS011;11499;49.486;11.104;2023-04-25T14:53:41;2.77;;;2.10;;
22665;SDS011;11499;49.486;11.104;2023-04-25T14:56:07;4.00;;;2.00;;
22665;SDS011;11499;49.486;11.104;2023-04-25T14:58:33;3.53;;;2.13;;
22665;SDS011;11499;49.486;11.104;2023-04-25T15:00:59;2.87;;;2.17;;
22665;SDS011;11499;49.486;11.104;2023-04-25T15:04:50;2.57;;;2.10;;
22665;SDS011;11499;49.486;11.104;2023-04-25T15:07:15;2.77;;;2.20;;
22665;SDS011;11499;49.486;11.104;2023-04-25T15:09:41;2.07;;;1.87;;
22665;SDS011;11499;49.486;11.104;2023-04-25T15:12:06;3.27;;;2.27;;
22665;SDS011;11499;49.486;11.104;2023-04-25T15:14:32;2.47;;;2.00;;
22665;SDS011;11499;49.486;11.104;2023-04-25T15:16:59;3.07;;;2.00;;
22665;SDS011;11499;49.486;11.104;2023-04-25T15:19:25;2.63;;;2.20;;
22665;SDS011;11499;49.486;11.104;2023-04-25T15:21:50;3.00;;;2.20;;
22665;SDS011;11499;49.486;11.104;2023-04-25T15:24:16;3.67;;;2.30;;
22665;SDS011;11499;49.486;11.104;2023-04-25T15:26:41;3.57;;;2.20;;
22665;SDS011;11499;49.486;11.104;2023-04-25T15:31:26;3.67;;;2.07;;
22665;SDS011;11499;49.486;11.104;2023-04-25T15:33:52;2.50;;;2.23;;
22665;SDS011;11499;49.486;11.104;2023-04-25T15:36:17;2.10;;;1.90;;
22665;SDS011;11499;49.486;11.104;2023-04-25T15:38:43;3.83;;;1.80;;
22665;SDS011;11499;49.486;11.104;2023-04-25T15:41:09;2.87;;;2.40;;
22665;SDS011;11499;49.486;11.104;2023-04-25T15:43:34;3.53;;;2.10;;
22665;SDS011;11499;49.486;11.104;2023-04-25T15:46:03;3.00;;;2.33;;
22665;SDS011;11499;49.486;11.104;2023-04-25T15:48:29;3.37;;;2.27;;
22665;SDS011;11499;49.486;11.104;2023-04-25T15:50:56;2.77;;;2.40;;
22665;SDS011;11499;49.486;11.104;2023-04-25T15:53:22;2.20;;;1.90;;
22665;SDS011;11499;49.486;11.104;2023-04-25T15:58:29;2.57;;;2.00;;
22665;SDS011;11499;49.486;11.104;2023-04-25T16:00:55;2.73;;;2.10;;